Aeroporto :
LOGIN :

Iscrizione | Disclaimer

   EN    FR    IT 

 










Sommario :    VFR   VFR Marginale   IFR   IFR Intensivo   IFR Molto Intensivo
Visibilità : 
Base nubi : 
>= 8 km
>= 3000ft
5 / 8 km
1000 / 3000 ft
1500m / 5 km
500 / 1000 ft
800 / 1500m
200 / 500 ft
< 800m
< 200 ft
Simboli :   Temporali  Nebbia  Neve Forte  Precipitazioni Forti  Vento > 20 kt
SIGMETs :   Varie  Temporali  Ghiacco  Turbolenza  Onda orograficha  Ceneri Vulcaniche







- Altitudine del aeroporto : 11 ft
- Codice IATA : MJV


LELC - Murcia San Javier

ULTIMO METAR :
  • 180000Z AUTO 04005KT 9000 FEW020/// 25/21 Q1017

METARs OBSOLETI :
  • 172330Z AUTO 04005KT 9999 FEW020/// 25/21 Q1018
  • 172300Z AUTO 05005KT 020V110 9999 SCT020/// 25/21 Q1017
  • 172230Z AUTO 05004KT 010V080 9999 FEW020/// 25/21 Q1017
  • 172200Z AUTO 06004KT 030V110 9999 NCD 25/21 Q1017
  • 172130Z AUTO 06005KT 030V120 CAVOK 25/21 Q1017

TAF TAF LELC
Valido dal 18 a 00 ore il 19 a 00 ore UTC


172300Z 1800/1824 01005KT 9999 SCT025 TX30/1812Z TN23/1806Z
BECMG 1807/1809 07012KT
BECMG 1818/1820 VRB03KT
PROB30
TEMPO 1815/1821 SCT030CB
Nessun NOTAM noto per questo aeroporto.
1 SIGMET conosciuto per la FIR Barcelona (LECB) :
 
Temporali affogati
LECB SIGMET 16 VALID 172300/180100 LEVA
LECB BARCELONA FIR/UIR EMBD TS OBS AT 2250Z WI N4040 E00237 - N3947 E00113 - N3918 E00149 - N4005 E00326 - N4040 E00237 TOP FL380 MOV SE NC=



MetMap, La meteo Aeronautica in un colpo d'occhio ! - Copyright ORBIFLY Dicembre 2007 - Disclaimer

ORBIFLY MET'MAP TEAM :

Programmazione e sviluppo : Alexandra Zaïnal
Concezione e sviluppo : Baudouin d'Aumeries
Co-Programmazione e sviluppo : Marc-Olivier Méhu
Supporto tecnico e logistico : Manuel Goepfert
Aiuto per la traduzione : Arnaldo La Scala

Contatto : metmap@orbifly.com




FONTI E CREDITI :

   NOAA